Flight Track Log - Related Links

Times and Time Zones

All times are in EDT time to prevent confusion due to time zone crossing. See the N500HY flight status page for this flight to view local times or setup timezone preferences in your user account.

Time Position Orientation Groundspeed Altitude Reporting Facility
EDT Latitude Longitude Course Direction KTS MPH feet Rate Location/Type
Tue 02:48:18 PM 37.5539 -84.2286 110° East 233 268 5,600  Level Indianapolis Center
Tue 02:49:20 PM 37.5250 -84.1272 110° East 258 297 8,500 2,081 Climbing Indianapolis Center
Tue 02:50:22 PM 37.5014 -84.0325 107° East 274 315 9,900 726 Climbing Indianapolis Center
Tue 02:51:24 PM 37.4756 -83.9317 108° East 294 338 10,000 484 Climbing Indianapolis Center
Tue 02:52:26 PM 37.4506 -83.8247 106° East 311 358 10,900 1,463 Climbing Indianapolis Center
Tue 02:53:27 PM 37.4258 -83.7206 107° East 312 359 13,000 2,049 Climbing Indianapolis Center
Tue 02:54:29 PM 37.3983 -83.6153 108° East 315 362 15,100 1,452 Climbing Indianapolis Center
Tue 02:55:31 PM 37.3714 -83.5064 107° East 323 372 16,000 1,210 Climbing Indianapolis Center
Tue 02:56:33 PM 37.3350 -83.3653 108° East 361 415 17,600 1,597 Climbing Indianapolis Center
Tue 02:57:35 PM 37.3047 -83.2447 107° East 360 414 19,300 1,756 Climbing Indianapolis Center
Tue 02:58:36 PM 37.2753 -83.1300 108° East 347 399 21,200 1,902 Climbing Indianapolis Center
Tue 02:59:38 PM 37.2469 -83.0167 107° East 341 392 23,200 1,887 Climbing Indianapolis Center
Tue 03:00:40 PM 37.2183 -82.9025 107° East 340 391 25,100 1,694 Climbing Indianapolis Center
Tue 03:01:42 PM 37.1883 -82.7889 108° East 340 391 26,700 1,403 Climbing Indianapolis Center
Tue 03:02:44 PM 37.1578 -82.6728 108° East 346 398 28,000 1,355 Climbing Indianapolis Center
Tue 03:03:46 PM 37.1214 -82.5336 108° East 355 409 29,500 1,210 Climbing Indianapolis Center
Tue 03:04:48 PM 37.0889 -82.4133 109° East 363 418 30,500 1,032 Climbing Indianapolis Center
Tue 03:05:19 PM 37.0725 -82.3478 107° East 371 427 31,100 1,055 Climbing Atlanta Center
Tue 03:06:19 PM 37.0394 -82.2239 108° East 371 427 32,100 1,000 Climbing Atlanta Center
Tue 03:07:19 PM 37.0064 -82.0997 108° East 371 427 33,100 884 Climbing Atlanta Center
Tue 03:07:54 PM 36.9903 -82.0378 108° East 379 436 33,500 742 Climbing Indianapolis Center
Tue 03:08:56 PM 36.9550 -81.9097 109° East 387 445 34,300 720 Climbing Indianapolis Center
Tue 03:09:59 PM 36.9144 -81.7597 109° East 392 451 35,000 336 Climbing Indianapolis Center
Tue 03:11:01 PM 36.8775 -81.6242 109° East 408 470 35,000  Level Indianapolis Center
Tue 03:11:19 PM 36.8656 -81.5767 107° East 404 465 35,000  Level Atlanta Center
Tue 03:12:19 PM 36.8256 -81.4508 112° Southeast 417 480 35,000  Level Atlanta Center
Tue 03:13:19 PM 36.7847 -81.3044 109° East 432 497 35,000  Level Atlanta Center
Tue 03:14:19 PM 36.7456 -81.1372 106° East 446 513 35,000 -300 Level Atlanta Center
Tue 03:15:19 PM 36.7025 -80.9914 110° East 453 521 34,400 -800 Descending Atlanta Center
Tue 03:16:19 PM 36.6611 -80.8453 109° East 453 521 33,400 -1,050 Descending Atlanta Center
Tue 03:17:19 PM 36.6197 -80.6944 109° East 453 521 32,300 -1,100 Descending Atlanta Center
Tue 03:18:19 PM 36.5739 -80.5489 111° Southeast 453 521 31,200 -1,150 Descending Atlanta Center
Tue 03:19:19 PM 36.5347 -80.4189 111° Southeast 453 521 30,000 -805 Descending Atlanta Center
Tue 03:21:03 PM 36.4611 -80.1581 109° East 438 504 29,000 -370 Descending Washington Center
Tue 03:22:01 PM 36.4244 -80.0242 109° East 444 511 29,000  Level Washington Center
Tue 03:23:02 PM 36.3797 -79.8772 111° Southeast 449 517 29,000 -492 Level Washington Center
Tue 03:24:03 PM 36.3356 -79.7150 109° East 459 528 28,000 -1,339 Descending Washington Center
Tue 03:25:03 PM 36.2903 -79.5656 111° Southeast 452 520 26,300 -1,636 Descending Washington Center
Tue 03:26:04 PM 36.2492 -79.4244 110° East 457 526 24,700 -1,613 Descending Washington Center
Tue 03:27:02 PM 36.2056 -79.2808 111° Southeast 447 514 23,100 -1,563 Descending Washington Center
Tue 03:28:03 PM 36.1639 -79.1400 110° East 442 509 21,600 -1,513 Descending Washington Center
Tue 03:29:01 PM 36.1222 -79.0017 110° East 437 503 20,100 -1,311 Descending Washington Center
Tue 03:30:02 PM 36.0800 -78.8661 111° Southeast 432 497 19,000 -545 Descending Washington Center
Tue 03:31:02 PM 36.0439 -78.7364 109° East 414 476 19,000  Level Washington Center
Tue 03:32:02 PM 36.0014 -78.6036 112° Southeast 414 476 19,000  Level Washington Center
Tue 03:33:03 PM 35.9608 -78.4711 111° Southeast 414 476 19,000 -149 Level Washington Center
Tue 03:34:03 PM 35.9222 -78.3417 110° East 414 476 18,700 -958 Descending Washington Center
Tue 03:35:02 PM 35.8811 -78.2144 112° Southeast 405 466 17,100 -1,800 Descending Washington Center
Tue 03:36:03 PM 35.8481 -78.1033 110° East 399 459 15,100 -1,339 Descending Washington Center
Tue 03:37:03 PM 35.8108 -77.9894 112° Southeast 386 444 14,400 -1,475 Descending Washington Center
Tue 03:38:01 PM 35.7775 -77.8783 110° East 359 413 12,200 -2,319 Descending Washington Center
Tue 03:39:02 PM 35.7458 -77.7800 112° Southeast 329 379 9,800 -2,213 Descending Washington Center
Tue 03:40:03 PM 35.7183 -77.6925 111° Southeast 299 344 7,700 -2,083 Descending Washington Center
Tue 03:41:03 PM 35.6906 -77.6072 112° Southeast 280 322 5,600 -2,186 Descending Washington Center
Tue 03:42:01 PM 35.6647 -77.5222 110° East 269 310 3,400 -2,276 Descending Washington Center

Login

Don't have an account? Register now (free) for customized features, flight alerts, and more!